Time;durP1;ratioP1;P1;durP2;ratioP2;P2;SDS_P1;SDS_P2;PMS_P1;PMS_P2;Temp;Humidity;BMP_temperature;BMP_pressure;BME280_temperature;BME280_humidity;BME280_pressure;Samples;Min_cycle;Max_cycle;Signal;HPM_P1;HPM_P2
2023/08/15 00:00:41;;;;;;;7.17;6.10;;;20.20;99.90;;;;;;2072773;28;20229;-81
2023/08/15 00:01:42;;;;;;;9.07;6.43;;;20.10;99.90;;;;;;2068916;28;20233;-82
2023/08/15 00:02:43;;;;;;;6.60;6.00;;;20.00;99.90;;;;;;2069466;28;20226;-82
2023/08/15 00:03:46;;;;;;;8.63;6.53;;;19.90;99.90;;;;;;2065538;28;20233;-82
2023/08/15 00:04:47;;;;;;;8.63;6.67;;;19.80;99.90;;;;;;2071696;28;20240;-83
2023/08/15 00:05:47;;;;;;;7.00;6.30;;;19.90;99.90;;;;;;2072380;28;20529;-81
2023/08/15 00:06:48;;;;;;;7.93;6.03;;;19.90;99.90;;;;;;2068781;28;20280;-82
2023/08/15 00:07:49;;;;;;;7.23;6.50;;;19.90;99.90;;;;;;2080637;28;20231;-82
2023/08/15 00:08:54;;;;;;;6.60;6.00;;;20.00;99.90;;;;;;2071968;28;20268;-82
2023/08/15 00:09:54;;;;;;;7.30;6.30;;;20.00;99.90;;;;;;2064427;28;20471;-83
2023/08/15 00:10:55;;;;;;;7.63;6.80;;;19.90;99.90;;;;;;2065385;28;21027;-83
2023/08/15 00:11:56;;;;;;;8.97;6.70;;;20.00;99.90;;;;;;2068295;28;20314;-83
2023/08/15 00:12:57;;;;;;;8.50;6.83;;;20.00;99.90;;;;;;2072275;28;20232;-82
2023/08/15 00:13:57;;;;;;;6.93;6.33;;;20.00;99.90;;;;;;2067833;28;20273;-82
2023/08/15 00:14:58;;;;;;;7.57;6.40;;;20.00;99.90;;;;;;2060197;28;20891;-83
2023/08/15 00:15:59;;;;;;;11.33;7.03;;;20.00;99.90;;;;;;2064470;28;20225;-84
2023/08/15 00:16:59;;;;;;;7.70;6.90;;;20.10;99.90;;;;;;2064812;28;20258;-82
2023/08/15 00:18:01;;;;;;;8.20;6.47;;;20.00;99.90;;;;;;2068088;28;20694;-82
2023/08/15 00:19:02;;;;;;;9.40;6.93;;;20.00;99.90;;;;;;2062878;28;20306;-82
2023/08/15 00:20:03;;;;;;;8.47;6.43;;;20.00;99.90;;;;;;2063375;28;20463;-81
2023/08/15 00:21:04;;;;;;;7.43;6.60;;;20.00;99.90;;;;;;2052209;28;20437;-83
2023/08/15 00:22:05;;;;;;;7.20;6.50;;;20.10;99.90;;;;;;2073481;28;20430;-82
2023/08/15 00:23:06;;;;;;;7.90;6.93;;;19.90;99.90;;;;;;2065109;28;20179;-81
2023/08/15 00:24:07;;;;;;;8.70;6.83;;;20.00;99.90;;;;;;2067298;28;20190;-82
2023/08/15 00:25:08;;;;;;;7.37;6.67;;;20.00;99.90;;;;;;2075956;28;20422;-81
2023/08/15 00:26:09;;;;;;;9.17;6.43;;;20.00;99.90;;;;;;2066459;28;20424;-83
2023/08/15 00:27:10;;;;;;;6.63;6.03;;;20.00;99.90;;;;;;2064449;28;20191;-83
2023/08/15 00:28:10;;;;;;;7.43;6.63;;;20.00;99.90;;;;;;2064549;28;20198;-83
2023/08/15 00:29:11;;;;;;;9.07;6.47;;;19.80;99.90;;;;;;2062681;28;20191;-83
2023/08/15 00:30:12;;;;;;;7.83;5.77;;;19.80;99.90;;;;;;2066315;28;20229;-83
2023/08/15 00:31:12;;;;;;;9.40;6.03;;;19.80;99.90;;;;;;2072412;28;20229;-83
2023/08/15 00:32:13;;;;;;;7.03;6.27;;;19.80;99.90;;;;;;2072141;28;20190;-83
2023/08/15 00:33:14;;;;;;;8.70;6.43;;;19.90;99.90;;;;;;2076294;28;20220;-83
2023/08/15 00:34:15;;;;;;;6.93;5.90;;;19.90;99.90;;;;;;2076426;28;20193;-83
2023/08/15 00:35:16;;;;;;;7.30;6.20;;;19.90;99.90;;;;;;2062215;28;20375;-82
2023/08/15 00:36:17;;;;;;;6.77;6.17;;;19.90;99.90;;;;;;2061195;28;20427;-82
2023/08/15 00:37:19;;;;;;;7.33;6.73;;;20.00;99.90;;;;;;2072398;28;20725;-82
2023/08/15 00:38:20;;;;;;;8.33;6.73;;;20.00;99.90;;;;;;2081393;28;21156;-82
2023/08/15 00:39:21;;;;;;;10.67;6.70;;;20.00;99.90;;;;;;2074120;28;20482;-82
2023/08/15 00:40:21;;;;;;;8.53;6.63;;;20.10;99.90;;;;;;2074317;28;20232;-83
2023/08/15 00:41:22;;;;;;;6.87;5.53;;;20.00;99.90;;;;;;2071073;28;20706;-82
2023/08/15 00:42:23;;;;;;;7.37;6.40;;;20.00;99.90;;;;;;2062102;28;20226;-82
2023/08/15 00:43:23;;;;;;;9.63;6.80;;;20.10;99.90;;;;;;2072525;28;20834;-82
2023/08/15 00:44:24;;;;;;;8.07;6.43;;;20.00;99.90;;;;;;2072619;28;20228;-82
2023/08/15 00:45:25;;;;;;;7.97;6.20;;;20.00;99.90;;;;;;2073787;28;20241;-82
2023/08/15 00:46:28;;;;;;;8.43;6.70;;;20.00;99.90;;;;;;2072873;28;20332;-82
2023/08/15 00:47:29;;;;;;;6.90;6.23;;;20.00;99.90;;;;;;2063989;28;21027;-82
2023/08/15 00:48:31;;;;;;;7.00;6.30;;;19.90;99.90;;;;;;2057760;28;20507;-82
2023/08/15 00:49:32;;;;;;;7.73;6.23;;;19.90;99.90;;;;;;2066077;28;20646;-81
2023/08/15 00:50:33;;;;;;;7.77;6.30;;;19.90;99.90;;;;;;2065695;28;20476;-82
2023/08/15 00:51:34;;;;;;;8.20;6.17;;;19.90;99.90;;;;;;2057829;28;20226;-82
2023/08/15 00:52:35;;;;;;;6.90;6.30;;;19.90;99.90;;;;;;2065937;28;20483;-83
2023/08/15 00:53:37;;;;;;;7.30;6.13;;;19.80;99.90;;;;;;2065715;28;20453;-83
2023/08/15 00:54:40;;;;;;;6.73;5.80;;;19.90;99.90;;;;;;2062686;28;20587;-82
2023/08/15 00:55:41;;;;;;;7.20;6.03;;;19.80;99.90;;;;;;2070953;28;20482;-81
2023/08/15 00:56:42;;;;;;;6.50;5.70;;;19.90;99.90;;;;;;2071149;28;20507;-82
2023/08/15 00:57:43;;;;;;;12.17;6.13;;;19.80;99.90;;;;;;2070206;28;20475;-82
2023/08/15 00:58:45;;;;;;;7.80;6.40;;;19.80;99.90;;;;;;2070453;28;20222;-82
2023/08/15 00:59:46;;;;;;;6.67;5.97;;;19.90;99.90;;;;;;2070226;28;20234;-81
2023/08/15 01:00:46;;;;;;;7.07;6.13;;;19.90;99.90;;;;;;2073373;28;20474;-82
2023/08/15 01:01:47;;;;;;;6.97;6.10;;;20.00;99.90;;;;;;2056635;28;20238;-81
2023/08/15 01:02:48;;;;;;;6.40;5.87;;;19.90;99.90;;;;;;2056500;28;20262;-82
2023/08/15 01:03:49;;;;;;;7.97;5.70;;;19.90;99.90;;;;;;2063888;28;20230;-82
2023/08/15 01:04:50;;;;;;;9.03;6.37;;;19.90;99.90;;;;;;2062880;28;20236;-82
2023/08/15 01:05:50;;;;;;;8.13;6.20;;;19.90;99.90;;;;;;2064011;28;20325;-81
2023/08/15 01:06:51;;;;;;;6.97;6.10;;;19.90;99.90;;;;;;2064649;28;20221;-82
2023/08/15 01:07:52;;;;;;;7.57;5.87;;;20.00;99.90;;;;;;2056020;28;20336;-82
2023/08/15 01:08:53;;;;;;;7.70;5.87;;;20.00;99.90;;;;;;2070215;28;20238;-82
2023/08/15 01:09:53;;;;;;;6.57;5.97;;;20.00;99.90;;;;;;2060117;28;20237;-82
2023/08/15 01:10:54;;;;;;;11.97;5.73;;;19.90;99.90;;;;;;2068262;28;20230;-82
2023/08/15 01:12:44;;;;;;;7.07;5.87;;;19.90;99.90;;;;;;2072243;28;20225;-81
2023/08/15 01:14:02;;;;;;;7.90;6.23;;;20.00;99.90;;;;;;2067531;28;20740;-82
2023/08/15 01:15:18;;;;;;;6.43;5.27;;;20.00;99.90;;;;;;2065575;28;20982;-81
2023/08/15 01:16:28;;;;;;;6.00;5.40;;;20.10;99.90;;;;;;2061301;28;20495;-82
2023/08/15 01:17:37;;;;;;;6.97;6.07;;;20.10;99.90;;;;;;2063148;28;20473;-82
2023/08/15 01:18:46;;;;;;;8.67;6.37;;;20.00;99.90;;;;;;2068175;28;20469;-82
2023/08/15 01:19:49;;;;;;;5.97;5.37;;;20.00;99.90;;;;;;2065945;28;20503;-83
2023/08/15 01:20:53;;;;;;;7.00;5.77;;;19.90;99.90;;;;;;2063979;28;20475;-82
2023/08/15 01:21:57;;;;;;;6.73;6.13;;;19.90;99.90;;;;;;2061568;28;20463;-82
2023/08/15 01:23:02;;;;;;;6.87;5.83;;;19.90;99.90;;;;;;2063981;28;20806;-83
2023/08/15 01:24:04;;;;;;;6.50;5.83;;;19.90;99.90;;;;;;2067331;28;20450;-83
2023/08/15 01:25:05;;;;;;;7.10;5.70;;;19.90;99.90;;;;;;2063703;28;20436;-81
2023/08/15 01:26:06;;;;;;;6.83;6.13;;;20.00;99.90;;;;;;2055764;28;20436;-82
2023/08/15 01:27:06;;;;;;;7.47;5.80;;;20.00;99.90;;;;;;2048718;28;20473;-83
2023/08/15 01:28:12;;;;;;;7.17;5.97;;;20.00;99.90;;;;;;2071215;28;20177;-82
2023/08/15 01:29:13;;;;;;;8.20;5.63;;;20.00;99.90;;;;;;2081962;28;20204;-81
2023/08/15 01:30:15;;;;;;;6.43;5.63;;;20.10;99.90;;;;;;2062591;28;20433;-82
2023/08/15 01:31:43;;;;;;;6.40;5.63;;;20.00;99.90;;;;;;2049734;28;20192;-82
2023/08/15 01:33:27;;;;;;;9.73;5.97;;;20.00;99.90;;;;;;2067956;28;20511;-83
2023/08/15 01:34:42;;;;;;;7.20;6.17;;;19.80;99.90;;;;;;2048826;28;20548;-82
2023/08/15 01:35:47;;;;;;;6.63;6.00;;;19.80;99.90;;;;;;2061523;28;20494;-82
2023/08/15 01:36:57;;;;;;;7.07;6.33;;;19.80;99.90;;;;;;2064373;28;20539;-81
2023/08/15 01:38:07;;;;;;;8.70;6.30;;;19.90;99.90;;;;;;2072510;28;21014;-82
2023/08/15 01:39:09;;;;;;;9.33;5.80;;;19.80;99.90;;;;;;2071341;28;20484;-82
2023/08/15 01:40:15;;;;;;;7.17;5.80;;;19.90;99.90;;;;;;2064113;28;20428;-82
2023/08/15 01:41:20;;;;;;;8.37;5.60;;;19.80;99.90;;;;;;2061625;28;20416;-82
2023/08/15 01:42:23;;;;;;;7.43;6.00;;;19.80;99.90;;;;;;2061991;28;20476;-80
2023/08/15 01:43:25;;;;;;;8.13;6.03;;;19.80;99.90;;;;;;2064144;28;20468;-83
2023/08/15 01:44:27;;;;;;;10.63;6.33;;;19.70;99.90;;;;;;2060213;28;20488;-82
2023/08/15 01:45:29;;;;;;;6.47;5.70;;;19.70;99.90;;;;;;2069001;28;20489;-82
2023/08/15 01:46:29;;;;;;;7.17;5.57;;;19.60;99.90;;;;;;2067934;28;20579;-82
2023/08/15 01:47:32;;;;;;;8.93;6.20;;;19.70;99.90;;;;;;2063965;28;20522;-82
2023/08/15 01:48:43;;;;;;;7.40;6.27;;;19.70;99.90;;;;;;2062240;28;20229;-82
2023/08/15 01:49:44;;;;;;;7.57;6.23;;;19.60;99.90;;;;;;2065210;28;20468;-82
2023/08/15 01:50:45;;;;;;;7.27;6.53;;;19.60;99.90;;;;;;2058141;28;20532;-82
2023/08/15 01:51:46;;;;;;;9.63;6.23;;;19.50;99.90;;;;;;2066806;28;20332;-81
2023/08/15 01:52:47;;;;;;;7.93;6.10;;;19.50;99.90;;;;;;2072882;28;20764;-82
2023/08/15 01:53:48;;;;;;;10.53;6.37;;;19.50;99.90;;;;;;2056088;28;20671;-81
2023/08/15 01:54:48;;;;;;;8.87;6.40;;;19.50;99.90;;;;;;2053192;28;20469;-81
2023/08/15 01:55:49;;;;;;;6.90;5.70;;;19.50;99.90;;;;;;2054354;28;20230;-82
2023/08/15 01:56:50;;;;;;;11.67;6.60;;;19.50;99.90;;;;;;2062180;28;20222;-82
2023/08/15 01:57:50;;;;;;;6.80;6.10;;;19.40;99.90;;;;;;2069926;28;20687;-81
2023/08/15 01:58:51;;;;;;;9.23;5.53;;;19.40;99.90;;;;;;2062216;28;20334;-82
2023/08/15 01:59:52;;;;;;;8.33;6.27;;;19.40;99.90;;;;;;2064424;28;20218;-82
2023/08/15 02:00:52;;;;;;;9.67;6.20;;;19.40;99.90;;;;;;2072039;28;20296;-82
2023/08/15 02:01:53;;;;;;;6.40;5.73;;;19.40;99.90;;;;;;2079894;28;20265;-82
2023/08/15 02:02:54;;;;;;;8.43;6.57;;;19.20;99.90;;;;;;2068901;28;20233;-81
2023/08/15 02:03:55;;;;;;;7.87;6.37;;;19.20;99.90;;;;;;2067836;28;20313;-82
2023/08/15 02:04:56;;;;;;;8.00;5.43;;;19.30;99.90;;;;;;2071949;28;20694;-82
2023/08/15 02:05:56;;;;;;;7.47;6.50;;;19.30;99.90;;;;;;2068157;28;20275;-82
2023/08/15 02:06:57;;;;;;;10.30;6.57;;;19.30;99.90;;;;;;2067650;28;20467;-82
2023/08/15 02:07:58;;;;;;;6.53;5.67;;;19.30;99.90;;;;;;2064296;28;20797;-81
2023/08/15 02:08:59;;;;;;;9.13;6.47;;;19.20;99.90;;;;;;2058999;28;20245;-81
2023/08/15 02:09:59;;;;;;;7.60;6.23;;;19.20;99.90;;;;;;2072219;28;20582;-82
2023/08/15 02:11:00;;;;;;;6.73;6.03;;;19.20;99.90;;;;;;2064180;28;20336;-82
2023/08/15 02:12:01;;;;;;;6.93;6.23;;;19.20;99.90;;;;;;2070133;28;20273;-81
2023/08/15 02:13:02;;;;;;;7.07;6.37;;;19.20;99.90;;;;;;2071452;28;20224;-81
2023/08/15 02:14:03;;;;;;;7.67;6.23;;;19.20;99.90;;;;;;2063291;28;20189;-80
2023/08/15 02:15:04;;;;;;;7.57;6.73;;;19.20;99.90;;;;;;2071375;28;20201;-81
2023/08/15 02:16:05;;;;;;;6.47;5.80;;;19.20;99.90;;;;;;2070662;28;20537;-81
2023/08/15 02:17:06;;;;;;;8.17;7.10;;;19.30;99.90;;;;;;2063568;28;20475;-82
2023/08/15 02:18:07;;;;;;;7.07;6.37;;;19.30;99.90;;;;;;2064066;28;20214;-81
2023/08/15 02:19:07;;;;;;;7.73;6.77;;;19.30;99.90;;;;;;2070996;28;20553;-82
2023/08/15 02:20:08;;;;;;;7.10;6.20;;;19.20;99.90;;;;;;2054801;28;20455;-81
2023/08/15 02:21:09;;;;;;;6.47;5.87;;;19.20;99.90;;;;;;2059208;28;20183;-82
2023/08/15 02:22:10;;;;;;;8.27;6.60;;;19.20;99.90;;;;;;2059205;28;20427;-82
2023/08/15 02:23:11;;;;;;;6.90;6.07;;;19.30;99.90;;;;;;2062984;28;20245;-81
2023/08/15 02:24:11;;;;;;;8.83;6.80;;;19.30;99.90;;;;;;2069343;28;20458;-82
2023/08/15 02:25:12;;;;;;;6.17;5.67;;;19.40;99.90;;;;;;2071656;28;20190;-82
2023/08/15 02:26:13;;;;;;;7.23;6.53;;;19.50;99.90;;;;;;2072682;28;20186;-82
2023/08/15 02:27:13;;;;;;;7.40;6.70;;;19.50;99.90;;;;;;2062186;28;20183;-82
2023/08/15 02:28:14;;;;;;;8.00;6.00;;;19.50;99.90;;;;;;2069185;28;20239;-82
2023/08/15 02:29:15;;;;;;;6.93;5.70;;;19.50;99.90;;;;;;2067869;28;20193;-81
2023/08/15 02:30:16;;;;;;;8.27;6.03;;;19.40;99.90;;;;;;2067169;28;20185;-83
2023/08/15 02:31:16;;;;;;;7.80;6.57;;;19.50;99.90;;;;;;2070705;28;20189;-82
2023/08/15 02:32:18;;;;;;;6.60;5.93;;;19.60;99.90;;;;;;2067176;28;20200;-82
2023/08/15 02:33:19;;;;;;;7.50;5.97;;;19.60;99.90;;;;;;2068152;28;20192;-82
2023/08/15 02:34:20;;;;;;;8.17;6.20;;;19.50;99.90;;;;;;2063133;28;20432;-82
2023/08/15 02:35:20;;;;;;;6.60;6.00;;;19.60;99.90;;;;;;2072075;28;20252;-83
2023/08/15 02:36:21;;;;;;;8.60;6.60;;;19.60;99.90;;;;;;2063480;28;20536;-83
2023/08/15 02:37:22;;;;;;;7.50;6.57;;;19.60;99.90;;;;;;2059149;28;20234;-82
2023/08/15 02:38:23;;;;;;;8.30;6.43;;;19.60;99.90;;;;;;2071775;28;20717;-82
2023/08/15 02:39:23;;;;;;;7.13;6.00;;;19.60;99.90;;;;;;2054239;28;20265;-82
2023/08/15 02:40:28;;;;;;;7.33;6.00;;;19.60;99.90;;;;;;2053231;28;20786;-81
2023/08/15 02:41:29;;;;;;;6.83;5.70;;;19.70;99.90;;;;;;2071507;28;20315;-82
2023/08/15 02:42:29;;;;;;;7.43;5.87;;;19.70;99.90;;;;;;2067121;28;20525;-82
2023/08/15 02:43:30;;;;;;;7.03;6.43;;;19.70;99.90;;;;;;2067860;28;20269;-81
2023/08/15 02:44:33;;;;;;;9.53;6.17;;;19.70;99.90;;;;;;2060365;28;20334;-81
2023/08/15 02:45:33;;;;;;;8.13;5.70;;;19.80;99.90;;;;;;2059964;28;20238;-82
2023/08/15 02:46:34;;;;;;;6.77;6.13;;;19.80;99.90;;;;;;2071825;28;21016;-82
2023/08/15 02:47:35;;;;;;;7.37;6.40;;;19.80;99.90;;;;;;2063544;28;20253;-82
2023/08/15 02:48:35;;;;;;;7.70;6.10;;;19.90;99.90;;;;;;2064334;28;20226;-82
2023/08/15 02:49:36;;;;;;;6.63;5.37;;;19.80;99.90;;;;;;2079402;28;20235;-82
2023/08/15 02:50:37;;;;;;;6.57;5.80;;;19.90;99.90;;;;;;2066901;28;20229;-83
2023/08/15 02:51:37;;;;;;;6.43;5.83;;;19.80;99.90;;;;;;2059838;28;20230;-82
2023/08/15 02:52:38;;;;;;;9.60;6.10;;;19.70;99.90;;;;;;2070793;28;20233;-82
2023/08/15 02:53:39;;;;;;;7.20;6.50;;;19.70;99.90;;;;;;2071542;28;20355;-82
2023/08/15 02:54:39;;;;;;;10.57;6.80;;;19.80;99.90;;;;;;2054780;28;20226;-81
2023/08/15 02:55:40;;;;;;;6.77;5.77;;;19.70;99.90;;;;;;2063090;28;20252;-82
2023/08/15 02:56:41;;;;;;;6.93;6.33;;;19.70;99.90;;;;;;2079654;28;20294;-81
2023/08/15 02:57:41;;;;;;;6.97;6.27;;;19.70;99.90;;;;;;2070750;28;20733;-82
2023/08/15 02:58:42;;;;;;;9.20;5.97;;;19.70;99.90;;;;;;2062772;28;20260;-82
2023/08/15 02:59:43;;;;;;;7.37;5.77;;;19.80;99.90;;;;;;2070898;28;20233;-83
2023/08/15 03:00:43;;;;;;;7.33;6.10;;;19.70;99.90;;;;;;2070326;28;20225;-82
2023/08/15 03:01:46;;;;;;;8.37;5.93;;;19.60;99.90;;;;;;2071866;28;20226;-81
2023/08/15 03:02:47;;;;;;;12.07;5.83;;;19.60;99.90;;;;;;2065114;28;20724;-82
2023/08/15 03:03:48;;;;;;;7.30;5.50;;;19.60;99.90;;;;;;2059103;28;20488;-82
2023/08/15 03:04:49;;;;;;;6.70;6.10;;;19.60;99.90;;;;;;2062205;28;20655;-82
2023/08/15 03:05:49;;;;;;;6.93;5.83;;;19.60;99.90;;;;;;2061136;28;20236;-82
2023/08/15 03:06:50;;;;;;;7.87;6.03;;;19.60;99.90;;;;;;2063129;28;20229;-82
2023/08/15 03:07:51;;;;;;;9.23;6.40;;;19.60;99.90;;;;;;2054747;28;20234;-82
2023/08/15 03:08:51;;;;;;;10.10;6.53;;;19.80;99.90;;;;;;2063613;28;20219;-82
2023/08/15 03:09:52;;;;;;;6.33;5.73;;;19.80;99.90;;;;;;2065768;28;20695;-82
2023/08/15 03:10:53;;;;;;;8.10;6.23;;;19.80;99.90;;;;;;2068545;28;20244;-83
2023/08/15 03:11:54;;;;;;;8.37;6.30;;;19.80;99.90;;;;;;2072257;28;20674;-82
2023/08/15 03:12:54;;;;;;;8.10;5.57;;;19.70;99.90;;;;;;2063400;28;20222;-82
2023/08/15 03:13:55;;;;;;;8.93;5.77;;;19.70;99.90;;;;;;2071456;28;20271;-82
2023/08/15 03:14:57;;;;;;;6.97;6.27;;;19.70;99.90;;;;;;2070794;28;20221;-82
2023/08/15 03:15:58;;;;;;;7.37;6.07;;;19.70;99.90;;;;;;2071305;28;20575;-83
2023/08/15 03:16:59;;;;;;;7.70;6.17;;;19.70;99.90;;;;;;2066686;28;20522;-81
2023/08/15 03:17:59;;;;;;;5.80;5.30;;;19.70;99.90;;;;;;2069910;28;20252;-82
2023/08/15 03:19:00;;;;;;;6.73;5.73;;;19.60;99.90;;;;;;2062261;28;20309;-82
2023/08/15 03:20:01;;;;;;;7.33;6.13;;;19.60;99.90;;;;;;2061536;28;20670;-82
2023/08/15 03:21:04;;;;;;;8.63;6.43;;;19.60;99.90;;;;;;2071104;28;20181;-83
2023/08/15 03:22:07;;;;;;;6.30;5.80;;;19.60;99.90;;;;;;2079094;28;20871;-81
2023/08/15 03:23:07;;;;;;;6.53;5.83;;;19.60;99.90;;;;;;2070960;28;20462;-82
2023/08/15 03:24:08;;;;;;;9.37;6.53;;;19.60;99.90;;;;;;2062916;28;20439;-82
2023/08/15 03:25:09;;;;;;;7.70;6.23;;;19.60;99.90;;;;;;2057139;28;20242;-82
2023/08/15 03:26:10;;;;;;;9.50;5.50;;;19.60;99.90;;;;;;2073184;28;20193;-80
2023/08/15 03:27:10;;;;;;;6.13;5.30;;;19.60;99.90;;;;;;2080272;28;20207;-80
2023/08/15 03:28:11;;;;;;;6.70;5.30;;;19.60;99.90;;;;;;2073560;28;20284;-83
2023/08/15 03:29:12;;;;;;;6.50;5.90;;;19.50;99.90;;;;;;2062062;28;20198;-83
2023/08/15 03:30:13;;;;;;;7.83;6.00;;;19.50;99.90;;;;;;2073264;28;20202;-82
2023/08/15 03:31:13;;;;;;;9.17;6.20;;;19.50;99.90;;;;;;2061873;28;20197;-82
2023/08/15 03:32:14;;;;;;;10.00;6.50;;;19.50;99.90;;;;;;2061457;28;20236;-84
2023/08/15 03:33:17;;;;;;;8.37;6.00;;;19.50;99.90;;;;;;2064684;28;20221;-82
2023/08/15 03:34:17;;;;;;;8.93;6.73;;;19.50;99.90;;;;;;2067042;28;20198;-83
2023/08/15 03:35:18;;;;;;;6.40;5.80;;;19.30;99.90;;;;;;2069186;28;20487;-82
2023/08/15 03:36:19;;;;;;;8.47;6.13;;;19.30;99.90;;;;;;2073926;28;20182;-82
2023/08/15 03:37:19;;;;;;;7.83;6.10;;;19.40;99.90;;;;;;2071334;28;20201;-82
2023/08/15 03:38:22;;;;;;;9.47;5.93;;;19.20;99.90;;;;;;2069224;28;20382;-84
2023/08/15 03:39:22;;;;;;;6.97;6.20;;;19.20;99.90;;;;;;2067970;28;20237;-82
2023/08/15 03:40:23;;;;;;;9.67;6.47;;;19.20;99.90;;;;;;2071783;28;20489;-82
2023/08/15 03:41:24;;;;;;;6.10;5.50;;;19.20;99.90;;;;;;2063829;28;20285;-83
2023/08/15 03:42:24;;;;;;;7.53;6.70;;;19.20;99.90;;;;;;2068232;28;20680;-82
2023/08/15 03:43:25;;;;;;;7.87;6.17;;;19.30;99.90;;;;;;2068234;28;20309;-83
2023/08/15 03:44:26;;;;;;;8.90;6.17;;;19.30;99.90;;;;;;2064717;28;20245;-83
2023/08/15 03:45:29;;;;;;;7.17;6.00;;;19.20;99.90;;;;;;2059758;28;20242;-83
2023/08/15 03:46:30;;;;;;;7.47;6.07;;;19.20;99.90;;;;;;2055218;28;20239;-83
2023/08/15 03:47:30;;;;;;;7.23;6.47;;;19.20;99.90;;;;;;2061829;28;20487;-81
2023/08/15 03:48:32;;;;;;;7.77;7.00;;;19.20;99.90;;;;;;2054801;28;20254;-82
2023/08/15 03:49:33;;;;;;;8.57;6.43;;;19.20;99.90;;;;;;2063021;28;20241;-83
2023/08/15 03:50:38;;;;;;;7.53;6.03;;;19.10;99.90;;;;;;2053507;28;20473;-82
2023/08/15 03:51:39;;;;;;;7.67;6.07;;;19.20;99.90;;;;;;2055563;28;20240;-83
2023/08/15 03:52:39;;;;;;;7.57;6.67;;;19.30;99.90;;;;;;2064680;28;20479;-82
2023/08/15 03:53:40;;;;;;;8.03;6.70;;;19.20;99.90;;;;;;2072988;28;20232;-82
2023/08/15 03:54:41;;;;;;;7.63;6.40;;;19.20;99.90;;;;;;2072362;28;20287;-83
2023/08/15 03:55:41;;;;;;;7.17;6.03;;;19.20;99.90;;;;;;2080070;28;20319;-83
2023/08/15 03:56:42;;;;;;;7.67;5.90;;;19.30;99.90;;;;;;2068357;28;20265;-83
2023/08/15 03:57:43;;;;;;;8.77;6.23;;;19.30;99.90;;;;;;2066582;28;20237;-82
2023/08/15 03:58:44;;;;;;;9.07;6.20;;;19.30;99.90;;;;;;2069189;28;20225;-83
2023/08/15 03:59:44;;;;;;;7.33;6.63;;;19.20;99.90;;;;;;2063644;28;20226;-84
2023/08/15 04:00:46;;;;;;;7.40;6.70;;;19.10;99.90;;;;;;2058279;28;20496;-84
2023/08/15 04:01:47;;;;;;;7.87;6.87;;;19.10;99.90;;;;;;2055777;28;20258;-84
2023/08/15 04:02:48;;;;;;;8.40;7.10;;;19.10;99.90;;;;;;2064827;28;20546;-82
2023/08/15 04:03:51;;;;;;;7.13;6.43;;;19.20;99.90;;;;;;2065361;28;20470;-84
2023/08/15 04:04:52;;;;;;;9.10;6.17;;;19.10;99.90;;;;;;2062860;28;20228;-83
2023/08/15 04:05:53;;;;;;;7.80;7.00;;;19.10;99.90;;;;;;2063118;28;20964;-82
2023/08/15 04:06:53;;;;;;;7.50;6.70;;;19.00;99.90;;;;;;2059005;28;20228;-81
2023/08/15 04:07:54;;;;;;;9.00;6.63;;;19.10;99.90;;;;;;2063594;28;20324;-81
2023/08/15 04:08:55;;;;;;;9.87;7.00;;;19.10;99.90;;;;;;2068005;28;20670;-82
2023/08/15 04:09:55;;;;;;;8.37;6.13;;;19.10;99.90;;;;;;2063812;28;20330;-82
2023/08/15 04:10:56;;;;;;;7.67;6.00;;;19.10;99.90;;;;;;2065029;28;20217;-82
2023/08/15 04:11:57;;;;;;;7.33;6.63;;;19.10;99.90;;;;;;2056028;28;20218;-82
2023/08/15 04:12:58;;;;;;;8.70;6.17;;;19.10;99.90;;;;;;2064678;28;20225;-82
2023/08/15 04:13:58;;;;;;;7.63;6.27;;;19.10;99.90;;;;;;2072742;28;20221;-82
2023/08/15 04:15:02;;;;;;;9.43;5.80;;;19.20;99.90;;;;;;2060997;28;20214;-81
2023/08/15 04:16:03;;;;;;;7.80;6.23;;;19.20;99.90;;;;;;2060443;28;20217;-81
2023/08/15 04:17:05;;;;;;;8.73;6.30;;;19.10;99.90;;;;;;2065338;28;20451;-82
2023/08/15 04:18:08;;;;;;;7.43;5.93;;;19.10;99.90;;;;;;2069400;28;20845;-81
2023/08/15 04:19:09;;;;;;;6.90;5.87;;;19.10;99.90;;;;;;2065840;28;21003;-81
2023/08/15 04:20:12;;;;;;;7.00;6.00;;;19.20;99.90;;;;;;2064234;28;20535;-81
2023/08/15 04:21:13;;;;;;;8.83;6.10;;;19.10;99.90;;;;;;2060415;28;20487;-82
2023/08/15 04:22:13;;;;;;;8.83;6.10;;;19.10;99.90;;;;;;2068717;28;20426;-82
2023/08/15 04:23:14;;;;;;;7.17;5.40;;;19.20;99.90;;;;;;2062461;28;20962;-80
2023/08/15 04:24:15;;;;;;;5.67;4.83;;;19.30;99.90;;;;;;2064912;28;20190;-82
2023/08/15 04:25:15;;;;;;;7.30;5.33;;;19.40;99.90;;;;;;2062714;28;20214;-81
2023/08/15 04:26:17;;;;;;;5.83;5.23;;;19.30;99.90;;;;;;2063955;28;20190;-80
2023/08/15 04:27:17;;;;;;;6.73;5.17;;;19.40;99.90;;;;;;2071406;28;20189;-81
2023/08/15 04:28:18;;;;;;;7.53;5.10;;;19.30;99.90;;;;;;2072459;28;20438;-81
2023/08/15 04:29:19;;;;;;;7.03;5.10;;;19.40;99.90;;;;;;2056957;28;20873;-81
2023/08/15 04:30:20;;;;;;;5.90;5.30;;;19.50;99.90;;;;;;2049035;28;20286;-81
2023/08/15 04:31:21;;;;;;;5.87;5.27;;;19.60;99.90;;;;;;2054293;28;20249;-83
2023/08/15 04:32:22;;;;;;;6.53;4.97;;;19.60;99.90;;;;;;2056256;28;20530;-83
2023/08/15 04:33:22;;;;;;;7.53;5.30;;;19.50;99.90;;;;;;2064695;28;20264;-82
2023/08/15 04:34:23;;;;;;;5.77;4.60;;;19.60;99.90;;;;;;2072877;28;20235;-83
2023/08/15 04:35:25;;;;;;;8.50;4.97;;;19.60;99.90;;;;;;2078979;28;20232;-83
2023/08/15 04:36:26;;;;;;;6.97;5.13;;;19.70;99.90;;;;;;2077345;28;20259;-83
2023/08/15 04:37:26;;;;;;;9.83;5.10;;;19.70;99.90;;;;;;2073155;28;20482;-83
2023/08/15 04:38:27;;;;;;;8.77;5.30;;;19.80;99.90;;;;;;2063803;28;20246;-84
2023/08/15 04:39:27;;;;;;;6.37;5.03;;;19.70;99.90;;;;;;2064503;28;20889;-83
2023/08/15 04:40:43;;;;;;;5.73;4.90;;;19.90;99.90;;;;;;2068351;28;20268;-82
2023/08/15 04:41:44;;;;;;;4.90;4.40;;;19.80;99.90;;;;;;2060626;28;20230;-84
2023/08/15 04:42:45;;;;;;;8.10;5.20;;;19.90;99.90;;;;;;2060512;28;20481;-82
2023/08/15 04:43:46;;;;;;;6.60;4.93;;;19.90;99.90;;;;;;2068814;28;20514;-83
2023/08/15 04:44:46;;;;;;;6.70;4.70;;;19.90;99.90;;;;;;2068211;28;20631;-82
2023/08/15 04:45:47;;;;;;;5.47;4.17;;;20.00;99.90;;;;;;2059618;28;20247;-83
2023/08/15 04:46:48;;;;;;;7.37;4.47;;;20.00;99.90;;;;;;2063826;28;20293;-82
2023/08/15 04:47:49;;;;;;;5.97;5.13;;;20.00;99.90;;;;;;2072278;28;20233;-82
2023/08/15 04:48:50;;;;;;;7.13;5.13;;;20.20;99.90;;;;;;2071994;28;20509;-82
2023/08/15 04:49:50;;;;;;;6.67;4.30;;;20.10;99.90;;;;;;2055406;28;20234;-83
2023/08/15 04:50:51;;;;;;;12.60;5.50;;;20.10;99.90;;;;;;2063638;28;20238;-82
2023/08/15 04:51:52;;;;;;;6.63;5.10;;;20.00;99.90;;;;;;2063457;28;20234;-82
2023/08/15 04:52:52;;;;;;;8.67;5.20;;;20.00;99.90;;;;;;2058757;28;20218;-82
2023/08/15 04:53:53;;;;;;;8.87;4.90;;;19.90;99.90;;;;;;2071766;28;20260;-81
2023/08/15 04:54:54;;;;;;;7.40;4.87;;;19.90;99.90;;;;;;2064466;28;20229;-83
2023/08/15 04:55:54;;;;;;;7.63;5.20;;;19.90;99.90;;;;;;2070540;28;20308;-82
2023/08/15 04:56:55;;;;;;;7.90;5.33;;;20.00;99.90;;;;;;2068843;28;20746;-83
2023/08/15 04:57:56;;;;;;;6.77;5.17;;;19.90;99.90;;;;;;2077484;28;20225;-82
2023/08/15 04:58:56;;;;;;;7.57;5.00;;;19.90;99.90;;;;;;2072279;28;20226;-82
2023/08/15 04:59:57;;;;;;;5.73;5.23;;;19.80;99.90;;;;;;2055871;28;20214;-83
2023/08/15 05:00:58;;;;;;;5.63;5.13;;;19.70;99.90;;;;;;2063407;28;20218;-83
2023/08/15 05:01:58;;;;;;;7.73;5.70;;;19.70;99.90;;;;;;2063773;28;20261;-83
2023/08/15 05:02:59;;;;;;;7.57;5.40;;;19.60;99.90;;;;;;2056389;28;20223;-83
2023/08/15 05:04:00;;;;;;;5.97;5.37;;;19.60;99.90;;;;;;2055924;28;20230;-82
2023/08/15 05:05:03;;;;;;;8.70;5.30;;;19.60;99.90;;;;;;2060102;28;20227;-83
2023/08/15 05:06:04;;;;;;;7.13;5.30;;;19.60;99.90;;;;;;2071535;28;20622;-82
2023/08/15 05:07:05;;;;;;;6.73;5.20;;;19.70;99.90;;;;;;2062899;28;20483;-82
2023/08/15 05:08:09;;;;;;;7.20;5.47;;;19.70;99.90;;;;;;2047599;28;20207;-82
2023/08/15 05:09:09;;;;;;;10.77;5.53;;;19.70;99.90;;;;;;2065011;28;20749;-81
2023/08/15 05:10:10;;;;;;;6.53;5.70;;;19.70;99.90;;;;;;2064047;28;20436;-83
2023/08/15 05:11:11;;;;;;;7.00;6.00;;;19.70;99.90;;;;;;2064402;28;20675;-83
2023/08/15 05:12:11;;;;;;;6.63;5.63;;;19.70;99.90;;;;;;2064240;28;20186;-83
2023/08/15 05:13:12;;;;;;;6.00;5.40;;;19.70;99.90;;;;;;2068098;28;20561;-82
2023/08/15 05:14:13;;;;;;;6.87;5.43;;;19.90;99.90;;;;;;2080992;28;20239;-83
2023/08/15 05:15:14;;;;;;;6.50;5.57;;;19.90;99.90;;;;;;2064648;28;20194;-83
2023/08/15 05:16:15;;;;;;;10.83;6.13;;;19.90;99.90;;;;;;2063222;28;20428;-83
2023/08/15 05:17:15;;;;;;;9.27;5.60;;;19.80;99.90;;;;;;2071954;28;20635;-83
2023/08/15 05:18:16;;;;;;;6.73;5.13;;;19.70;99.90;;;;;;2059931;28;20221;-83
2023/08/15 05:19:17;;;;;;;6.10;5.50;;;19.70;99.90;;;;;;2059970;28;20666;-83
2023/08/15 05:20:18;;;;;;;10.30;5.73;;;19.70;99.90;;;;;;2063760;28;20289;-82
2023/08/15 05:21:18;;;;;;;7.90;5.50;;;19.70;99.90;;;;;;2067305;28;20258;-82